Sniezka, Poland
Current Conditions -  °F | °C
As of 4:00 AM on Monday 26 Jan 2015 (Local Time) from LKPD Reporting Station
Overcast Overcast  
Wind Chill: 27°   Ceiling: 4000
Heat Index: 32°   Visibility: 6mi
Dew Point: 27°   Wind: 5mph
Humidity: 80%   Direction: 290°WNW
Pressure: 30.27"   Gusts: NA
Location:  50.77°N, 15.75°E
Report Text: LKPD 260200Z 29004KT 9999 OVC040 00/M03 Q1025
Loading
Personal Weather Stations






























Interactive Weather Map New forecast layout! Learn more

10-Day Weather Forecast

Advertisements
Track Severe Weather on mobile